Time;durP1;ratioP1;P1;durP2;ratioP2;P2;SDS_P1;SDS_P2;PMS_P1;PMS_P2;Temp;Humidity;BMP_temperature;BMP_pressure;BME280_temperature;BME280_humidity;BME280_pressure;Samples;Min_cycle;Max_cycle;Signal;HPM_P1;HPM_P2
2021/09/17 00:02:08;;;;;;;0.00;0.00;;;;;;;;;;5041609;28;20198;-66
2021/09/17 00:04:34;;;;;;;0.10;0.10;;;;;;;;;;5041997;28;20227;-66
2021/09/17 00:07:02;;;;;;;0.10;0.10;;;;;;;;;;5042257;28;20207;-66
2021/09/17 00:09:30;;;;;;;0.00;0.00;;;;;;;;;;5042520;28;20204;-64
2021/09/17 00:11:56;;;;;;;0.10;0.10;;;;;;;;;;5044600;28;20224;-66
2021/09/17 00:14:22;;;;;;;0.10;0.10;;;;;;;;;;5032166;28;20215;-65
2021/09/17 00:16:49;;;;;;;0.10;0.10;;;;;;;;;;5046002;28;20231;-66
2021/09/17 00:19:15;;;;;;;0.10;0.10;;;;;;;;;;5028243;28;20209;-67
2021/09/17 00:21:41;;;;;;;0.10;0.10;;;;;;;;;;5026061;28;20201;-67
2021/09/17 00:24:08;;;;;;;0.10;0.10;;;;;;;;;;5025834;28;20209;-66
2021/09/17 00:26:35;;;;;;;0.00;0.00;;;;;;;;;;5045616;28;20243;-67
2021/09/17 00:29:01;;;;;;;0.10;0.10;;;;;;;;;;5045752;28;20500;-66
2021/09/17 00:31:27;;;;;;;0.10;0.10;;;;;;;;;;5027669;28;20204;-65
2021/09/17 00:33:53;;;;;;;0.10;0.10;;;;;;;;;;5035837;28;20207;-66
2021/09/17 00:36:19;;;;;;;0.00;0.00;;;;;;;;;;5043503;28;20208;-66
2021/09/17 00:38:46;;;;;;;0.05;0.05;;;;;;;;;;5025371;28;20217;-66
2021/09/17 00:41:14;;;;;;;0.00;0.00;;;;;;;;;;5025549;28;20205;-67
2021/09/17 00:43:41;;;;;;;0.10;0.10;;;;;;;;;;5036292;28;20339;-65
2021/09/17 00:46:07;;;;;;;0.00;0.00;;;;;;;;;;5032809;28;20502;-66
2021/09/17 00:48:33;;;;;;;0.10;0.10;;;;;;;;;;5025152;28;20223;-66
2021/09/17 00:50:59;;;;;;;0.10;0.10;;;;;;;;;;5036265;28;20200;-65
2021/09/17 00:53:28;;;;;;;0.10;0.10;;;;;;;;;;5044330;28;20468;-66
2021/09/17 00:55:54;;;;;;;0.10;0.10;;;;;;;;;;5043653;28;20255;-67
2021/09/17 00:58:22;;;;;;;0.10;0.10;;;;;;;;;;5045254;28;20508;-65
2021/09/17 01:00:48;;;;;;;0.10;0.10;;;;;;;;;;5045186;28;20251;-65
2021/09/17 01:03:14;;;;;;;0.10;0.10;;;;;;;;;;5045147;28;20425;-65
2021/09/17 01:05:40;;;;;;;0.05;0.05;;;;;;;;;;5044516;28;20228;-66
2021/09/17 01:08:06;;;;;;;0.10;0.10;;;;;;;;;;5045045;28;20211;-67
2021/09/17 01:10:33;;;;;;;0.10;0.10;;;;;;;;;;5044515;28;20211;-65
2021/09/17 01:12:59;;;;;;;0.10;0.10;;;;;;;;;;5044912;28;20276;-66
2021/09/17 01:15:27;;;;;;;0.10;0.10;;;;;;;;;;5044493;28;20254;-67
2021/09/17 01:17:53;;;;;;;0.10;0.10;;;;;;;;;;5045016;28;20231;-66
2021/09/17 01:20:20;;;;;;;0.05;0.05;;;;;;;;;;5044436;28;20212;-66
2021/09/17 01:22:49;;;;;;;0.10;0.10;;;;;;;;;;5043658;28;20201;-66
2021/09/17 01:25:16;;;;;;;0.10;0.10;;;;;;;;;;5044426;28;20218;-66
2021/09/17 01:27:43;;;;;;;0.10;0.10;;;;;;;;;;5044642;28;20210;-65
2021/09/17 01:30:10;;;;;;;0.00;0.00;;;;;;;;;;5034508;28;20213;-66
2021/09/17 01:32:41;;;;;;;0.10;0.10;;;;;;;;;;5040241;28;20228;-65
2021/09/17 01:35:07;;;;;;;0.00;0.00;;;;;;;;;;5044526;28;20231;-64
2021/09/17 01:37:34;;;;;;;0.10;0.10;;;;;;;;;;5044277;28;20250;-67
2021/09/17 01:40:01;;;;;;;0.10;0.10;;;;;;;;;;5044437;28;20250;-67
2021/09/17 01:42:27;;;;;;;0.10;0.10;;;;;;;;;;5044414;28;20315;-66
2021/09/17 01:44:54;;;;;;;0.10;0.10;;;;;;;;;;5044227;28;20392;-66
2021/09/17 01:47:20;;;;;;;0.10;0.10;;;;;;;;;;5044222;28;20206;-65
2021/09/17 01:49:46;;;;;;;0.10;0.10;;;;;;;;;;5044080;28;20243;-65
2021/09/17 01:52:12;;;;;;;0.10;0.10;;;;;;;;;;5044081;28;20294;-65
2021/09/17 01:54:38;;;;;;;0.10;0.10;;;;;;;;;;5043976;28;20603;-66
2021/09/17 01:57:06;;;;;;;0.10;0.10;;;;;;;;;;5043921;28;20201;-66
2021/09/17 01:59:32;;;;;;;0.00;0.00;;;;;;;;;;5044004;28;20215;-66
2021/09/17 02:01:59;;;;;;;0.10;0.10;;;;;;;;;;5043516;28;20446;-66
2021/09/17 02:04:25;;;;;;;0.10;0.10;;;;;;;;;;5043781;28;20228;-66
2021/09/17 02:06:51;;;;;;;0.00;0.00;;;;;;;;;;5030067;28;20323;-66
2021/09/17 02:09:17;;;;;;;0.00;0.00;;;;;;;;;;5030053;28;20511;-66
2021/09/17 02:11:44;;;;;;;0.10;0.10;;;;;;;;;;5043681;28;20212;-67
2021/09/17 02:14:11;;;;;;;0.07;0.07;;;;;;;;;;5043352;28;20205;-65
2021/09/17 02:16:39;;;;;;;0.07;0.07;;;;;;;;;;5043481;28;20238;-66
2021/09/17 02:19:05;;;;;;;0.10;0.10;;;;;;;;;;5043686;28;20217;-66
2021/09/17 02:21:31;;;;;;;0.00;0.00;;;;;;;;;;5043615;28;20203;-66
2021/09/17 02:23:57;;;;;;;0.10;0.10;;;;;;;;;;5043458;28;20494;-65
2021/09/17 02:26:24;;;;;;;0.10;0.10;;;;;;;;;;5043472;28;20407;-67
2021/09/17 02:28:50;;;;;;;0.10;0.10;;;;;;;;;;5042229;28;20208;-67
2021/09/17 02:31:18;;;;;;;0.10;0.10;;;;;;;;;;5026966;28;20208;-66
2021/09/17 02:33:44;;;;;;;0.10;0.10;;;;;;;;;;5027421;28;20228;-66
2021/09/17 02:36:10;;;;;;;0.00;0.00;;;;;;;;;;5042834;28;20296;-66
2021/09/17 02:38:37;;;;;;;0.03;0.03;;;;;;;;;;5030175;28;20213;-67
2021/09/17 02:41:03;;;;;;;0.10;0.10;;;;;;;;;;5023583;28;20205;-65
2021/09/17 02:43:29;;;;;;;0.10;0.10;;;;;;;;;;5027289;28;20200;-66
2021/09/17 02:45:56;;;;;;;0.10;0.10;;;;;;;;;;5033237;28;20317;-67
2021/09/17 02:48:23;;;;;;;0.10;0.10;;;;;;;;;;5031103;28;20209;-65
2021/09/17 02:50:51;;;;;;;0.10;0.10;;;;;;;;;;5042942;28;20212;-65
2021/09/17 02:53:19;;;;;;;0.00;0.00;;;;;;;;;;5042976;28;20278;-65
2021/09/17 02:55:46;;;;;;;0.10;0.10;;;;;;;;;;5042961;28;20439;-66
2021/09/17 02:58:12;;;;;;;0.00;0.00;;;;;;;;;;5037930;28;20517;-67
2021/09/17 03:00:39;;;;;;;0.10;0.10;;;;;;;;;;5034168;28;20402;-66
2021/09/17 03:03:05;;;;;;;0.00;0.00;;;;;;;;;;5042839;28;20207;-66
2021/09/17 03:05:33;;;;;;;0.10;0.10;;;;;;;;;;5028916;28;20307;-67
2021/09/17 03:07:59;;;;;;;0.10;0.10;;;;;;;;;;5033695;28;20238;-66
2021/09/17 03:10:28;;;;;;;0.10;0.10;;;;;;;;;;5022860;28;20205;-66
2021/09/17 03:12:55;;;;;;;0.10;0.10;;;;;;;;;;5022920;28;20270;-66
2021/09/17 03:15:21;;;;;;;0.10;0.10;;;;;;;;;;5023089;28;20252;-67
2021/09/17 03:17:47;;;;;;;0.10;0.10;;;;;;;;;;5028075;28;20212;-66
2021/09/17 03:20:13;;;;;;;0.10;0.10;;;;;;;;;;5032139;28;20214;-66
2021/09/17 03:22:41;;;;;;;0.10;0.10;;;;;;;;;;5039201;28;20338;-65
2021/09/17 03:25:08;;;;;;;0.10;0.10;;;;;;;;;;5032830;28;20208;-67
2021/09/17 03:27:34;;;;;;;0.10;0.10;;;;;;;;;;5028367;28;20247;-66
2021/09/17 03:30:00;;;;;;;0.10;0.10;;;;;;;;;;5034327;28;20214;-66
2021/09/17 03:32:26;;;;;;;0.00;0.00;;;;;;;;;;5022933;28;20258;-67
2021/09/17 03:34:53;;;;;;;0.00;0.00;;;;;;;;;;5036367;28;20211;-67
2021/09/17 03:37:19;;;;;;;0.10;0.10;;;;;;;;;;5022517;28;20251;-66
2021/09/17 03:39:46;;;;;;;0.10;0.10;;;;;;;;;;5023443;28;20268;-66
2021/09/17 03:42:13;;;;;;;0.10;0.10;;;;;;;;;;5022816;28;20263;-68
2021/09/17 03:44:39;;;;;;;0.10;0.10;;;;;;;;;;5036832;28;20456;-65
2021/09/17 03:47:05;;;;;;;0.10;0.10;;;;;;;;;;5038258;28;20504;-66
2021/09/17 03:49:31;;;;;;;0.10;0.10;;;;;;;;;;5026689;28;20249;-65
2021/09/17 03:51:57;;;;;;;0.00;0.00;;;;;;;;;;5026477;28;20533;-65
2021/09/17 03:54:26;;;;;;;0.10;0.10;;;;;;;;;;5037532;28;20229;-65
2021/09/17 03:56:54;;;;;;;0.10;0.10;;;;;;;;;;5037579;28;20485;-67
2021/09/17 03:59:20;;;;;;;0.10;0.10;;;;;;;;;;5036214;28;20211;-66
2021/09/17 04:01:47;;;;;;;0.03;0.03;;;;;;;;;;5032193;28;20523;-66
2021/09/17 04:04:14;;;;;;;0.10;0.10;;;;;;;;;;5031195;28;20223;-66
2021/09/17 04:06:42;;;;;;;0.10;0.10;;;;;;;;;;5035142;28;20203;-66
2021/09/17 04:09:08;;;;;;;0.10;0.10;;;;;;;;;;5040346;28;20209;-66
2021/09/17 04:11:34;;;;;;;0.10;0.10;;;;;;;;;;5036111;28;20207;-66
2021/09/17 04:14:02;;;;;;;0.10;0.10;;;;;;;;;;5032073;28;20455;-66
2021/09/17 04:16:28;;;;;;;0.10;0.10;;;;;;;;;;5033255;28;20207;-66
2021/09/17 04:18:54;;;;;;;0.10;0.10;;;;;;;;;;5038450;28;20207;-65
2021/09/17 04:21:21;;;;;;;0.07;0.07;;;;;;;;;;5031217;28;20201;-66
2021/09/17 04:23:47;;;;;;;0.10;0.10;;;;;;;;;;5038655;28;20201;-66
2021/09/17 04:26:13;;;;;;;0.10;0.10;;;;;;;;;;5034149;28;20400;-67
2021/09/17 04:28:39;;;;;;;0.00;0.00;;;;;;;;;;5033933;28;20247;-66
2021/09/17 04:31:07;;;;;;;0.10;0.10;;;;;;;;;;5031784;28;20205;-66
2021/09/17 04:33:33;;;;;;;0.10;0.10;;;;;;;;;;5041514;28;20223;-65
2021/09/17 04:35:59;;;;;;;0.10;0.10;;;;;;;;;;5043261;28;20202;-67
2021/09/17 04:38:25;;;;;;;0.10;0.10;;;;;;;;;;5038648;28;20213;-66
2021/09/17 04:40:52;;;;;;;0.03;0.03;;;;;;;;;;5045551;28;20210;-67
2021/09/17 04:43:18;;;;;;;0.00;0.00;;;;;;;;;;5026640;28;20498;-67
2021/09/17 04:45:44;;;;;;;0.10;0.10;;;;;;;;;;5035900;28;20258;-67
2021/09/17 04:48:13;;;;;;;0.10;0.10;;;;;;;;;;5031104;28;20214;-67
2021/09/17 04:50:39;;;;;;;0.00;0.00;;;;;;;;;;5036161;28;20511;-67
2021/09/17 04:53:05;;;;;;;0.10;0.10;;;;;;;;;;5039245;28;20227;-66
2021/09/17 04:55:33;;;;;;;0.10;0.10;;;;;;;;;;5032663;28;20205;-66
2021/09/17 04:58:01;;;;;;;0.07;0.07;;;;;;;;;;5030747;28;20250;-65
2021/09/17 05:00:27;;;;;;;0.10;0.10;;;;;;;;;;5026838;28;20212;-66
2021/09/17 05:02:53;;;;;;;0.10;0.10;;;;;;;;;;5025299;28;20206;-66
2021/09/17 05:05:21;;;;;;;0.10;0.10;;;;;;;;;;5038821;28;20269;-66
2021/09/17 05:07:47;;;;;;;0.00;0.00;;;;;;;;;;5025185;28;20273;-66
2021/09/17 05:10:14;;;;;;;0.10;0.10;;;;;;;;;;5024969;28;20207;-66
2021/09/17 05:12:40;;;;;;;0.10;0.10;;;;;;;;;;5025117;28;20204;-66
2021/09/17 05:15:07;;;;;;;0.10;0.10;;;;;;;;;;5024865;28;20472;-65
2021/09/17 05:17:33;;;;;;;0.10;0.10;;;;;;;;;;5024898;28;20268;-66
2021/09/17 05:19:59;;;;;;;0.10;0.10;;;;;;;;;;5024563;28;20264;-67
2021/09/17 05:22:27;;;;;;;0.10;0.10;;;;;;;;;;5043450;28;20372;-67
2021/09/17 05:24:53;;;;;;;0.10;0.10;;;;;;;;;;5033757;28;20256;-66
2021/09/17 05:27:19;;;;;;;0.10;0.10;;;;;;;;;;5024740;28;20203;-66
2021/09/17 05:29:46;;;;;;;0.10;0.10;;;;;;;;;;5033823;28;20385;-66
2021/09/17 05:32:12;;;;;;;0.00;0.00;;;;;;;;;;5043028;28;20206;-67
2021/09/17 05:34:38;;;;;;;0.10;0.10;;;;;;;;;;5024504;28;20226;-66
2021/09/17 05:37:05;;;;;;;0.10;0.10;;;;;;;;;;5024383;28;20212;-65
2021/09/17 05:39:33;;;;;;;0.10;0.10;;;;;;;;;;5025384;28;20238;-65
2021/09/17 05:41:59;;;;;;;0.10;0.10;;;;;;;;;;5044241;28;20231;-66
2021/09/17 05:44:27;;;;;;;0.10;0.10;;;;;;;;;;5044292;28;20206;-65
2021/09/17 05:46:53;;;;;;;0.10;0.10;;;;;;;;;;5044445;28;20229;-66
2021/09/17 05:49:19;;;;;;;0.10;0.10;;;;;;;;;;5044102;28;20247;-67
2021/09/17 05:51:45;;;;;;;0.10;0.10;;;;;;;;;;5030164;28;20253;-66
2021/09/17 05:54:11;;;;;;;0.10;0.10;;;;;;;;;;5044006;28;20221;-66
2021/09/17 05:56:39;;;;;;;0.10;0.10;;;;;;;;;;5043818;28;20215;-66
2021/09/17 05:59:05;;;;;;;0.10;0.10;;;;;;;;;;5043673;28;20206;-66
2021/09/17 06:01:31;;;;;;;0.10;0.10;;;;;;;;;;5043699;28;20205;-66
2021/09/17 06:03:58;;;;;;;0.10;0.10;;;;;;;;;;5043748;28;20429;-66
2021/09/17 06:06:24;;;;;;;0.10;0.10;;;;;;;;;;5041921;28;20201;-66
2021/09/17 06:08:50;;;;;;;0.00;0.00;;;;;;;;;;5044204;28;20409;-66
2021/09/17 06:11:16;;;;;;;0.10;0.10;;;;;;;;;;5043140;28;20266;-67
2021/09/17 06:13:44;;;;;;;0.10;0.10;;;;;;;;;;5038802;28;20222;-67
2021/09/17 06:16:11;;;;;;;0.10;0.10;;;;;;;;;;5028328;28;20508;-66
2021/09/17 06:18:38;;;;;;;0.10;0.10;;;;;;;;;;5037135;28;20201;-65
2021/09/17 06:21:04;;;;;;;0.10;0.10;;;;;;;;;;5042732;28;20202;-66
2021/09/17 06:23:30;;;;;;;0.10;0.10;;;;;;;;;;5043393;28;20205;-65
2021/09/17 06:25:57;;;;;;;0.10;0.10;;;;;;;;;;5042912;28;20286;-66
2021/09/17 06:28:23;;;;;;;0.10;0.10;;;;;;;;;;5025649;28;20474;-65
2021/09/17 06:30:51;;;;;;;0.10;0.10;;;;;;;;;;5037881;28;20222;-65
2021/09/17 06:33:17;;;;;;;0.10;0.10;;;;;;;;;;5043215;28;20259;-65
2021/09/17 06:35:43;;;;;;;0.10;0.10;;;;;;;;;;5042655;28;20211;-66
2021/09/17 06:38:09;;;;;;;0.10;0.10;;;;;;;;;;5035566;28;20215;-64
2021/09/17 06:40:36;;;;;;;0.10;0.10;;;;;;;;;;5036553;28;20224;-64
2021/09/17 06:43:02;;;;;;;0.10;0.10;;;;;;;;;;5040001;28;20253;-65
2021/09/17 06:45:29;;;;;;;0.10;0.10;;;;;;;;;;5026133;28;20410;-66
2021/09/17 06:47:58;;;;;;;0.00;0.00;;;;;;;;;;5029231;28;20456;-64
2021/09/17 06:50:25;;;;;;;0.10;0.10;;;;;;;;;;5043055;28;20400;-66
2021/09/17 06:52:53;;;;;;;0.10;0.10;;;;;;;;;;5041730;28;20265;-66
2021/09/17 06:55:20;;;;;;;0.10;0.10;;;;;;;;;;5042789;28;20233;-66
2021/09/17 06:57:47;;;;;;;0.10;0.10;;;;;;;;;;5035205;28;20212;-66
2021/09/17 07:00:15;;;;;;;0.10;0.10;;;;;;;;;;5031922;28;20208;-66
2021/09/17 07:02:41;;;;;;;0.10;0.10;;;;;;;;;;5037398;28;20208;-67
2021/09/17 07:05:09;;;;;;;0.10;0.10;;;;;;;;;;5030050;28;20243;-66
2021/09/17 07:07:35;;;;;;;0.10;0.10;;;;;;;;;;5039001;28;20561;-67
2021/09/17 07:10:01;;;;;;;0.20;0.20;;;;;;;;;;5037179;28;20204;-66
2021/09/17 07:12:28;;;;;;;0.10;0.10;;;;;;;;;;5033588;28;20202;-64
2021/09/17 07:14:54;;;;;;;0.10;0.10;;;;;;;;;;5034906;28;20280;-66
2021/09/17 07:17:20;;;;;;;0.97;0.97;;;;;;;;;;5032062;28;20251;-67
2021/09/17 07:19:46;;;;;;;0.10;0.10;;;;;;;;;;5042786;28;20494;-65
2021/09/17 07:22:14;;;;;;;0.10;0.10;;;;;;;;;;5046050;28;20210;-66
2021/09/17 07:24:40;;;;;;;0.10;0.10;;;;;;;;;;5044384;28;20209;-66
2021/09/17 07:27:06;;;;;;;0.10;0.10;;;;;;;;;;5037397;28;20248;-66
2021/09/17 07:29:32;;;;;;;0.10;0.10;;;;;;;;;;5043893;28;20207;-64
2021/09/17 07:31:58;;;;;;;0.10;0.10;;;;;;;;;;5041909;28;20215;-65
2021/09/17 07:34:25;;;;;;;0.10;0.10;;;;;;;;;;5046366;28;20405;-65
2021/09/17 07:36:51;;;;;;;0.10;0.10;;;;;;;;;;5039811;28;20409;-65
2021/09/17 07:39:18;;;;;;;0.10;0.10;;;;;;;;;;5030324;28;20223;-66
2021/09/17 07:41:45;;;;;;;0.00;0.00;;;;;;;;;;5040538;28;20208;-66
2021/09/17 07:44:11;;;;;;;0.00;0.00;;;;;;;;;;5038470;28;20243;-66
2021/09/17 07:46:37;;;;;;;0.10;0.10;;;;;;;;;;5042803;28;20212;-67
2021/09/17 07:49:03;;;;;;;0.10;0.10;;;;;;;;;;5026484;28;20205;-67
2021/09/17 07:51:30;;;;;;;0.10;0.10;;;;;;;;;;5049100;28;20204;-65
2021/09/17 07:53:56;;;;;;;0.10;0.10;;;;;;;;;;5038105;28;20265;-65
2021/09/17 07:56:23;;;;;;;0.10;0.10;;;;;;;;;;5026242;28;20205;-66
2021/09/17 07:58:50;;;;;;;0.10;0.10;;;;;;;;;;5032565;28;20208;-67
2021/09/17 08:01:16;;;;;;;0.10;0.10;;;;;;;;;;5046202;28;20200;-66
2021/09/17 08:03:42;;;;;;;0.00;0.00;;;;;;;;;;5036872;28;20209;-66
2021/09/17 08:06:10;;;;;;;0.10;0.10;;;;;;;;;;5037100;28;20223;-67
2021/09/17 08:08:36;;;;;;;0.10;0.10;;;;;;;;;;5041698;28;20201;-68
2021/09/17 08:11:03;;;;;;;0.10;0.10;;;;;;;;;;5042859;28;20506;-67
2021/09/17 08:13:30;;;;;;;0.10;0.10;;;;;;;;;;5043885;28;20203;-67
2021/09/17 08:15:56;;;;;;;0.10;0.10;;;;;;;;;;5045804;28;20228;-66
2021/09/17 08:18:25;;;;;;;0.10;0.10;;;;;;;;;;5040199;28;20238;-66
2021/09/17 08:20:52;;;;;;;0.10;0.10;;;;;;;;;;5034937;28;20206;-67
2021/09/17 08:23:19;;;;;;;0.10;0.10;;;;;;;;;;5045821;28;20244;-67
2021/09/17 08:25:45;;;;;;;0.10;0.10;;;;;;;;;;5034017;28;20199;-67
2021/09/17 08:28:11;;;;;;;0.03;0.03;;;;;;;;;;5040476;28;20205;-67
2021/09/17 08:30:39;;;;;;;0.10;0.10;;;;;;;;;;5037273;28;20203;-67
2021/09/17 08:33:05;;;;;;;0.00;0.00;;;;;;;;;;5034596;28;20205;-66
2021/09/17 08:35:31;;;;;;;0.10;0.10;;;;;;;;;;5045274;28;20590;-67
2021/09/17 08:37:57;;;;;;;0.10;0.10;;;;;;;;;;5042199;28;20265;-67
2021/09/17 08:40:25;;;;;;;0.07;0.07;;;;;;;;;;5040014;28;20206;-66
2021/09/17 08:42:51;;;;;;;0.03;0.03;;;;;;;;;;5045149;28;20273;-66
2021/09/17 08:45:18;;;;;;;0.07;0.07;;;;;;;;;;5045182;28;20197;-68
2021/09/17 08:47:48;;;;;;;0.10;0.10;;;;;;;;;;5034645;28;20207;-68
2021/09/17 08:50:14;;;;;;;0.00;0.00;;;;;;;;;;5036712;28;20260;-68
2021/09/17 08:52:40;;;;;;;0.10;0.10;;;;;;;;;;5045052;28;20202;-67
2021/09/17 08:55:07;;;;;;;0.10;0.10;;;;;;;;;;5030269;28;20223;-66
2021/09/17 08:57:33;;;;;;;0.00;0.00;;;;;;;;;;5041695;28;20212;-66
2021/09/17 09:00:00;;;;;;;0.10;0.10;;;;;;;;;;5040557;28;20294;-67
2021/09/17 09:02:28;;;;;;;0.10;0.10;;;;;;;;;;5040617;28;20200;-66
2021/09/17 09:04:56;;;;;;;0.10;0.10;;;;;;;;;;5040178;28;20244;-67
2021/09/17 09:07:27;;;;;;;0.00;0.00;;;;;;;;;;5045024;28;20237;-68
2021/09/17 09:09:54;;;;;;;0.10;0.10;;;;;;;;;;5044982;28;20523;-68
2021/09/17 09:12:20;;;;;;;0.10;0.10;;;;;;;;;;5041425;28;20217;-67
2021/09/17 09:14:46;;;;;;;0.10;0.10;;;;;;;;;;5036798;28;20541;-68
2021/09/17 09:17:12;;;;;;;0.10;0.10;;;;;;;;;;5039972;28;20200;-76
2021/09/17 09:19:39;;;;;;;0.10;0.10;;;;;;;;;;5041706;28;20204;-72
2021/09/17 09:22:13;;;;;;;0.10;0.10;;;;;;;;;;5044641;28;20233;-74
2021/09/17 09:24:41;;;;;;;0.10;0.10;;;;;;;;;;5044485;28;20203;-74
2021/09/17 09:27:09;;;;;;;0.10;0.10;;;;;;;;;;5041500;28;20202;-73
2021/09/17 09:29:35;;;;;;;0.00;0.00;;;;;;;;;;5032817;28;20264;-74
2021/09/17 09:32:02;;;;;;;0.10;0.10;;;;;;;;;;5044593;28;20242;-73
2021/09/17 09:34:47;;;;;;;0.00;0.00;;;;;;;;;;5043732;28;20585;-73
2021/09/17 09:37:17;;;;;;;0.10;0.10;;;;;;;;;;5038994;28;20210;-74
2021/09/17 09:39:53;;;;;;;0.10;0.10;;;;;;;;;;5044028;28;20229;-74
2021/09/17 09:42:20;;;;;;;0.10;0.10;;;;;;;;;;5033645;28;20322;-74
2021/09/17 09:45:06;;;;;;;0.10;0.10;;;;;;;;;;5040061;28;20275;-72
2021/09/17 09:47:33;;;;;;;0.10;0.10;;;;;;;;;;5043365;28;20248;-72
2021/09/17 09:50:03;;;;;;;0.10;0.10;;;;;;;;;;5048481;28;20252;-73
2021/09/17 09:52:32;;;;;;;0.10;0.10;;;;;;;;;;5045860;28;20439;-73
2021/09/17 09:54:58;;;;;;;0.10;0.10;;;;;;;;;;5028796;28;20234;-72
2021/09/17 09:57:24;;;;;;;0.10;0.10;;;;;;;;;;5043959;28;20242;-74
2021/09/17 09:59:52;;;;;;;0.10;0.10;;;;;;;;;;5043770;28;20331;-74
2021/09/17 10:02:20;;;;;;;0.10;0.10;;;;;;;;;;5043862;28;20246;-73
2021/09/17 10:04:46;;;;;;;0.10;0.10;;;;;;;;;;5042323;28;20237;-72
2021/09/17 10:07:12;;;;;;;0.10;0.10;;;;;;;;;;5040370;28;20223;-76
2021/09/17 10:09:40;;;;;;;0.10;0.10;;;;;;;;;;5032966;28;20280;-73
2021/09/17 10:12:07;;;;;;;0.10;0.10;;;;;;;;;;5043868;28;20215;-72
2021/09/17 10:14:34;;;;;;;0.10;0.10;;;;;;;;;;5043235;28;20259;-72
2021/09/17 10:17:05;;;;;;;0.10;0.10;;;;;;;;;;5040735;28;20213;-71
2021/09/17 10:19:31;;;;;;;0.10;0.10;;;;;;;;;;5035757;28;20489;-73
2021/09/17 10:21:59;;;;;;;0.00;0.00;;;;;;;;;;5043664;28;20207;-74
2021/09/17 10:24:39;;;;;;;0.10;0.10;;;;;;;;;;5043384;28;20234;-74
2021/09/17 10:27:07;;;;;;;0.10;0.10;;;;;;;;;;5047502;28;20250;-74
2021/09/17 10:29:34;;;;;;;0.10;0.10;;;;;;;;;;5043299;28;20455;-74
2021/09/17 10:32:01;;;;;;;0.10;0.10;;;;;;;;;;5039052;28;20208;-73
2021/09/17 10:34:32;;;;;;;0.00;0.00;;;;;;;;;;5043180;28;20200;-73
2021/09/17 10:36:58;;;;;;;0.10;0.10;;;;;;;;;;5043466;28;20205;-73
2021/09/17 10:39:24;;;;;;;0.10;0.10;;;;;;;;;;5042963;28;20218;-72
2021/09/17 10:42:07;;;;;;;0.10;0.10;;;;;;;;;;5043387;28;20405;-73
2021/09/17 10:44:53;;;;;;;0.10;0.10;;;;;;;;;;5043066;28;20248;-73
2021/09/17 10:47:34;;;;;;;0.07;0.07;;;;;;;;;;5033419;28;20206;-72
2021/09/17 10:50:04;;;;;;;0.10;0.10;;;;;;;;;;5040523;28;20217;-73
2021/09/17 10:52:40;;;;;;;0.10;0.10;;;;;;;;;;5033020;28;20249;-71
2021/09/17 10:55:07;;;;;;;0.10;0.10;;;;;;;;;;5036422;28;20391;-73
2021/09/17 10:57:54;;;;;;;0.10;0.10;;;;;;;;;;5022590;28;20206;-74
2021/09/17 11:00:35;;;;;;;0.00;0.00;;;;;;;;;;5041541;28;20269;-74
2021/09/17 11:03:01;;;;;;;0.10;0.10;;;;;;;;;;5030098;28;20325;-74
2021/09/17 11:05:28;;;;;;;0.10;0.10;;;;;;;;;;5022999;28;20224;-74
2021/09/17 11:07:54;;;;;;;0.07;0.07;;;;;;;;;;5023202;28;20207;-74
2021/09/17 11:10:25;;;;;;;0.10;0.10;;;;;;;;;;5022700;28;20245;-73
2021/09/17 11:13:04;;;;;;;0.10;0.10;;;;;;;;;;5032571;28;20277;-74
2021/09/17 11:15:30;;;;;;;0.10;0.10;;;;;;;;;;5042664;28;20305;-71
2021/09/17 11:17:56;;;;;;;0.10;0.10;;;;;;;;;;5043650;28;20201;-73
2021/09/17 11:20:24;;;;;;;0.10;0.10;;;;;;;;;;5034726;28;20207;-73
2021/09/17 11:22:58;;;;;;;0.07;0.07;;;;;;;;;;5038545;28;20224;-72
2021/09/17 11:25:26;;;;;;;0.10;0.10;;;;;;;;;;5041601;28;20213;-72
2021/09/17 11:27:54;;;;;;;0.10;0.10;;;;;;;;;;5042695;28;20231;-71
2021/09/17 11:30:21;;;;;;;0.10;0.10;;;;;;;;;;5041875;28;20507;-72
2021/09/17 11:32:47;;;;;;;0.10;0.10;;;;;;;;;;5029733;28;20210;-72
2021/09/17 11:35:14;;;;;;;0.03;0.03;;;;;;;;;;5042339;28;20226;-73
2021/09/17 11:37:47;;;;;;;0.10;0.10;;;;;;;;;;5042406;28;20201;-70
2021/09/17 11:40:13;;;;;;;0.10;0.10;;;;;;;;;;5040139;28;20198;-73
2021/09/17 11:42:40;;;;;;;0.10;0.10;;;;;;;;;;5039341;28;20404;-73
2021/09/17 11:45:15;;;;;;;0.00;0.00;;;;;;;;;;5049329;28;20254;-73
2021/09/17 11:47:45;;;;;;;0.10;0.10;;;;;;;;;;5042513;28;20318;-73
2021/09/17 11:50:13;;;;;;;0.10;0.10;;;;;;;;;;5038758;28;20284;-74
2021/09/17 11:52:40;;;;;;;0.00;0.00;;;;;;;;;;5040685;28;20211;-72
2021/09/17 11:55:07;;;;;;;0.00;0.00;;;;;;;;;;5035834;28;20219;-74
2021/09/17 11:57:35;;;;;;;0.10;0.10;;;;;;;;;;5042233;28;20258;-74
2021/09/17 12:00:05;;;;;;;0.10;0.10;;;;;;;;;;5039407;28;20234;-75
2021/09/17 12:02:33;;;;;;;0.10;0.10;;;;;;;;;;5041002;28;20211;-72
2021/09/17 12:05:01;;;;;;;0.10;0.10;;;;;;;;;;5039273;28;20231;-74
2021/09/17 12:07:28;;;;;;;0.00;0.00;;;;;;;;;;5043837;28;20522;-72
2021/09/17 12:09:54;;;;;;;0.00;0.00;;;;;;;;;;5042921;28;20210;-73
2021/09/17 12:12:31;;;;;;;0.10;0.10;;;;;;;;;;5045657;28;20200;-72
2021/09/17 12:14:57;;;;;;;0.10;0.10;;;;;;;;;;5042846;28;20248;-73
2021/09/17 12:17:23;;;;;;;0.10;0.10;;;;;;;;;;5045613;28;20202;-74
2021/09/17 12:19:55;;;;;;;0.00;0.00;;;;;;;;;;5045741;28;20197;-72
2021/09/17 12:22:32;;;;;;;0.00;0.00;;;;;;;;;;5042602;28;20237;-74
2021/09/17 12:25:02;;;;;;;0.10;0.10;;;;;;;;;;5045453;28;20206;-73
2021/09/17 12:27:29;;;;;;;0.10;0.10;;;;;;;;;;5044744;28;20400;-73
2021/09/17 12:29:56;;;;;;;0.10;0.10;;;;;;;;;;5045573;28;20263;-74
2021/09/17 12:32:23;;;;;;;0.03;0.03;;;;;;;;;;5043606;28;20334;-73
2021/09/17 12:35:04;;;;;;;0.10;0.10;;;;;;;;;;5045322;28;20206;-72
2021/09/17 12:37:30;;;;;;;0.10;0.10;;;;;;;;;;5041266;28;20418;-70
2021/09/17 12:40:07;;;;;;;0.10;0.10;;;;;;;;;;5041034;28;20228;-71
2021/09/17 12:42:33;;;;;;;0.10;0.10;;;;;;;;;;5044611;28;20259;-71
2021/09/17 12:45:01;;;;;;;0.10;0.10;;;;;;;;;;5044024;28;20202;-70
2021/09/17 12:47:30;;;;;;;0.10;0.10;;;;;;;;;;5036444;28;20294;-74
2021/09/17 12:50:05;;;;;;;0.10;0.10;;;;;;;;;;5034442;28;20479;-70
2021/09/17 12:52:33;;;;;;;0.00;0.00;;;;;;;;;;5037951;28;20246;-72
2021/09/17 12:54:59;;;;;;;0.10;0.10;;;;;;;;;;5041771;28;20224;-72
2021/09/17 12:57:26;;;;;;;0.00;0.00;;;;;;;;;;5045192;28;20232;-72
2021/09/17 12:59:59;;;;;;;0.10;0.10;;;;;;;;;;5044781;28;20444;-70
2021/09/17 13:02:26;;;;;;;0.00;0.00;;;;;;;;;;5026309;28;20204;-74
2021/09/17 13:04:57;;;;;;;0.10;0.10;;;;;;;;;;5039098;28;20272;-71
2021/09/17 13:07:24;;;;;;;0.10;0.10;;;;;;;;;;5029559;28;20210;-70
2021/09/17 13:09:51;;;;;;;0.10;0.10;;;;;;;;;;5035882;28;20206;-71
2021/09/17 13:12:17;;;;;;;0.10;0.10;;;;;;;;;;5044091;28;20209;-72
2021/09/17 13:14:43;;;;;;;0.07;0.07;;;;;;;;;;5044865;28;20210;-72
2021/09/17 13:17:09;;;;;;;0.00;0.00;;;;;;;;;;5044699;28;20230;-72
2021/09/17 13:19:36;;;;;;;0.10;0.10;;;;;;;;;;5044038;28;20209;-72
2021/09/17 13:22:02;;;;;;;0.10;0.10;;;;;;;;;;5044623;28;20213;-72
2021/09/17 13:24:29;;;;;;;0.10;0.10;;;;;;;;;;5028033;28;20203;-71
2021/09/17 13:26:56;;;;;;;0.10;0.10;;;;;;;;;;5030244;28;20214;-71
2021/09/17 13:29:22;;;;;;;0.10;0.10;;;;;;;;;;5044207;28;20551;-71
2021/09/17 13:31:48;;;;;;;0.10;0.10;;;;;;;;;;5030541;28;20220;-71
2021/09/17 13:34:14;;;;;;;0.10;0.10;;;;;;;;;;5041578;28;20202;-73
2021/09/17 13:36:41;;;;;;;0.00;0.00;;;;;;;;;;5040222;28;20257;-73
2021/09/17 13:39:07;;;;;;;0.10;0.10;;;;;;;;;;5046637;28;20217;-72
2021/09/17 13:41:34;;;;;;;0.10;0.10;;;;;;;;;;5041004;28;20234;-71
2021/09/17 13:44:01;;;;;;;0.10;0.10;;;;;;;;;;5046126;28;20209;-72
2021/09/17 13:46:27;;;;;;;0.10;0.10;;;;;;;;;;5046304;28;20506;-72
2021/09/17 13:48:53;;;;;;;0.10;0.10;;;;;;;;;;5036528;28;20206;-73
2021/09/17 13:51:19;;;;;;;0.97;0.97;;;;;;;;;;5044129;28;20207;-71
2021/09/17 13:53:45;;;;;;;0.00;0.00;;;;;;;;;;5035580;28;20279;-72
2021/09/17 13:56:12;;;;;;;0.00;0.00;;;;;;;;;;5048039;28;20240;-72
2021/09/17 13:58:39;;;;;;;0.00;0.00;;;;;;;;;;5046700;28;20295;-73
2021/09/17 14:01:06;;;;;;;0.10;0.10;;;;;;;;;;5032444;28;20428;-73
2021/09/17 14:03:32;;;;;;;0.10;0.10;;;;;;;;;;5028099;28;20214;-71
2021/09/17 14:05:58;;;;;;;0.10;0.10;;;;;;;;;;5033093;28;20387;-72
2021/09/17 14:08:24;;;;;;;0.10;0.10;;;;;;;;;;5032441;28;20208;-72
2021/09/17 14:10:51;;;;;;;0.10;0.10;;;;;;;;;;5038662;28;20267;-72
2021/09/17 14:13:17;;;;;;;0.10;0.10;;;;;;;;;;5037108;28;20201;-71
2021/09/17 14:15:44;;;;;;;0.10;0.10;;;;;;;;;;5040594;28;20202;-72
2021/09/17 14:18:11;;;;;;;0.00;0.00;;;;;;;;;;5039205;28;20207;-72
2021/09/17 14:20:37;;;;;;;0.10;0.10;;;;;;;;;;5041327;28;20203;-72
2021/09/17 14:23:03;;;;;;;0.10;0.10;;;;;;;;;;5043728;28;20205;-72
2021/09/17 14:25:32;;;;;;;0.10;0.10;;;;;;;;;;5043600;28;20226;-73
2021/09/17 14:27:59;;;;;;;0.10;0.10;;;;;;;;;;5033940;28;20481;-72
2021/09/17 14:30:26;;;;;;;0.10;0.10;;;;;;;;;;5044551;28;20391;-71
2021/09/17 14:32:56;;;;;;;0.10;0.10;;;;;;;;;;5038649;28;20246;-72
2021/09/17 14:35:23;;;;;;;0.10;0.10;;;;;;;;;;5036751;28;20494;-72
2021/09/17 14:37:49;;;;;;;0.03;0.03;;;;;;;;;;5040194;28;20249;-72
2021/09/17 14:40:15;;;;;;;0.10;0.10;;;;;;;;;;5040383;28;20201;-73
2021/09/17 14:42:42;;;;;;;1.80;1.73;;;;;;;;;;5040584;28;20207;-72
2021/09/17 14:45:08;;;;;;;0.10;0.10;;;;;;;;;;5042951;28;20203;-71